Time;durP1;ratioP1;P1;durP2;ratioP2;P2;SDS_P1;SDS_P2;PMS_P1;PMS_P2;Temp;Humidity;BMP_temperature;BMP_pressure;BME280_temperature;BME280_humidity;BME280_pressure;Samples;Min_cycle;Max_cycle;Signal;HPM_P1;HPM_P2
2022/08/05 00:00:08;;;;;;;7.05;6.35;;;;;;;;;;5063995;28;20034;-64
2022/08/05 00:02:33;;;;;;;6.68;6.18;;;;;;;;;;5045004;28;20479;-65
2022/08/05 00:04:58;;;;;;;8.13;7.45;;;;;;;;;;5064277;28;20131;-64
2022/08/05 00:07:23;;;;;;;7.88;7.28;;;;;;;;;;5062995;28;20364;-64
2022/08/05 00:09:48;;;;;;;6.93;6.53;;;;;;;;;;5043194;28;20112;-64
2022/08/05 00:12:14;;;;;;;6.43;5.90;;;;;;;;;;5062638;28;20039;-66
2022/08/05 00:14:39;;;;;;;7.03;6.53;;;;;;;;;;5063293;28;20020;-64
2022/08/05 00:17:04;;;;;;;7.40;6.85;;;;;;;;;;5061461;28;20128;-64
2022/08/05 00:19:30;;;;;;;9.02;7.22;;;;;;;;;;5059932;28;20035;-64
2022/08/05 00:21:55;;;;;;;7.28;6.70;;;;;;;;;;5045252;28;20032;-64
2022/08/05 00:24:20;;;;;;;7.82;7.13;;;;;;;;;;5061163;28;20056;-64
2022/08/05 00:26:45;;;;;;;7.72;7.07;;;;;;;;;;5061225;28;20071;-64
2022/08/05 00:29:11;;;;;;;6.72;6.22;;;;;;;;;;5059894;28;20028;-64
2022/08/05 00:31:36;;;;;;;6.68;6.18;;;;;;;;;;5061519;28;20386;-65
2022/08/05 00:34:03;;;;;;;7.00;6.50;;;;;;;;;;5062835;28;20382;-64
2022/08/05 00:36:28;;;;;;;7.32;6.68;;;;;;;;;;5063707;28;20543;-65
2022/08/05 00:38:53;;;;;;;7.22;6.65;;;;;;;;;;5061374;28;20025;-64
2022/08/05 00:41:28;;;;;;;7.63;7.13;;;;;;;;;;5060035;28;20589;-64
2022/08/05 00:43:54;;;;;;;8.27;7.63;;;;;;;;;;5059739;28;20029;-64
2022/08/05 00:46:19;;;;;;;7.18;6.68;;;;;;;;;;5061001;28;20090;-64
2022/08/05 00:48:44;;;;;;;8.35;7.53;;;;;;;;;;5062329;28;20099;-64
2022/08/05 00:51:09;;;;;;;8.10;7.40;;;;;;;;;;5061114;28;20132;-64
2022/08/05 00:53:34;;;;;;;6.85;6.35;;;;;;;;;;5060919;28;20055;-64
2022/08/05 00:56:00;;;;;;;7.55;6.95;;;;;;;;;;5059376;28;20108;-64
2022/08/05 00:58:25;;;;;;;7.63;6.93;;;;;;;;;;5043031;28;20478;-64
2022/08/05 01:00:50;;;;;;;9.27;8.38;;;;;;;;;;5042527;28;20039;-64
2022/08/05 01:03:15;;;;;;;8.63;7.93;;;;;;;;;;5060354;28;20102;-64
2022/08/05 01:05:41;;;;;;;7.22;6.53;;;;;;;;;;5060036;28;20535;-64
2022/08/05 01:08:06;;;;;;;7.07;6.57;;;;;;;;;;5062171;28;20028;-64
2022/08/05 01:10:37;;;;;;;8.57;8.00;;;;;;;;;;5059848;28;20186;-63
2022/08/05 01:13:08;;;;;;;7.20;6.60;;;;;;;;;;5059632;28;20020;-64
2022/08/05 01:15:36;;;;;;;8.20;7.50;;;;;;;;;;5061546;28;20052;-65
2022/08/05 01:18:06;;;;;;;8.10;7.35;;;;;;;;;;5062057;28;20040;-64
2022/08/05 01:20:57;;;;;;;8.23;7.53;;;;;;;;;;5062337;28;20028;-64
2022/08/05 01:23:25;;;;;;;8.02;7.35;;;;;;;;;;5062925;28;20101;-64
2022/08/05 01:25:56;;;;;;;8.25;7.50;;;;;;;;;;5062692;28;20441;-64
2022/08/05 01:28:21;;;;;;;8.20;7.60;;;;;;;;;;5059907;28;20039;-64
2022/08/05 01:31:00;;;;;;;8.20;7.50;;;;;;;;;;5060530;28;20024;-64
2022/08/05 01:33:28;;;;;;;8.13;7.43;;;;;;;;;;5062340;28;20081;-64
2022/08/05 01:35:55;;;;;;;7.63;7.13;;;;;;;;;;5060083;28;20031;-64
2022/08/05 01:38:21;;;;;;;7.18;6.68;;;;;;;;;;5058993;28;20122;-65
2022/08/05 01:40:59;;;;;;;8.10;7.50;;;;;;;;;;5076657;27;1455303;-64
2022/08/05 01:43:26;;;;;;;7.38;6.78;;;;;;;;;;5120294;27;20486;-64
2022/08/05 01:45:52;;;;;;;6.97;6.47;;;;;;;;;;5122640;27;20027;-64
2022/08/05 01:48:18;;;;;;;7.55;7.05;;;;;;;;;;5118864;27;20023;-63
2022/08/05 01:50:45;;;;;;;8.15;7.55;;;;;;;;;;5118912;27;20315;-64
2022/08/05 01:53:12;;;;;;;8.80;7.90;;;;;;;;;;5122134;27;20406;-64
2022/08/05 01:55:38;;;;;;;7.90;7.30;;;;;;;;;;5120346;27;20027;-64
2022/08/05 01:58:04;;;;;;;8.63;7.93;;;;;;;;;;5118422;27;20114;-64
2022/08/05 02:00:31;;;;;;;7.82;7.22;;;;;;;;;;5118204;27;20036;-63
2022/08/05 02:03:06;;;;;;;8.15;7.55;;;;;;;;;;5119180;27;20114;-64
2022/08/05 02:05:33;;;;;;;7.72;7.03;;;;;;;;;;5120962;27;20041;-64
2022/08/05 02:07:58;;;;;;;8.35;7.68;;;;;;;;;;5119993;27;20083;-64
2022/08/05 02:10:29;;;;;;;8.15;7.32;;;;;;;;;;5120919;27;20027;-64
2022/08/05 02:12:57;;;;;;;8.27;7.68;;;;;;;;;;5119792;27;20485;-63
2022/08/05 02:15:27;;;;;;;9.13;7.97;;;;;;;;;;5117952;27;20366;-65
2022/08/05 02:17:52;;;;;;;7.97;7.32;;;;;;;;;;5119093;27;20061;-65
2022/08/05 02:20:20;;;;;;;7.78;7.18;;;;;;;;;;5117307;27;20482;-65
2022/08/05 02:22:47;;;;;;;10.00;9.20;;;;;;;;;;5118230;27;20042;-65
2022/08/05 02:25:21;;;;;;;8.75;8.07;;;;;;;;;;5120100;27;20077;-64
2022/08/05 02:27:47;;;;;;;8.10;7.45;;;;;;;;;;5119453;27;20023;-65
2022/08/05 02:30:14;;;;;;;8.75;8.05;;;;;;;;;;5117270;27;20064;-64
2022/08/05 02:32:39;;;;;;;8.27;7.68;;;;;;;;;;5118757;27;20020;-64
2022/08/05 02:35:08;;;;;;;7.68;7.07;;;;;;;;;;5117545;27;20061;-64
2022/08/05 02:37:35;;;;;;;8.63;7.93;;;;;;;;;;5118349;27;20576;-64
2022/08/05 02:40:01;;;;;;;8.63;7.75;;;;;;;;;;5120378;27;20111;-64
2022/08/05 02:42:26;;;;;;;8.70;8.00;;;;;;;;;;5121210;27;20034;-64
2022/08/05 02:44:52;;;;;;;9.60;8.80;;;;;;;;;;5120951;27;20035;-64
2022/08/05 02:47:18;;;;;;;8.73;8.02;;;;;;;;;;5121303;27;20031;-64
2022/08/05 02:49:45;;;;;;;8.23;7.53;;;;;;;;;;5117203;27;20035;-64
2022/08/05 02:52:15;;;;;;;7.55;7.05;;;;;;;;;;5105363;27;20080;-64
2022/08/05 02:54:41;;;;;;;9.07;8.27;;;;;;;;;;5106969;27;20035;-64
2022/08/05 02:57:07;;;;;;;9.27;8.48;;;;;;;;;;5105082;27;20051;-64
2022/08/05 02:59:33;;;;;;;9.98;9.00;;;;;;;;;;5102011;27;20477;-64
2022/08/05 03:01:59;;;;;;;8.10;7.50;;;;;;;;;;5091009;27;20380;-64
2022/08/05 03:04:24;;;;;;;9.80;8.85;;;;;;;;;;5105463;27;20023;-64
2022/08/05 03:06:50;;;;;;;8.50;7.78;;;;;;;;;;5105149;27;20485;-65
2022/08/05 03:09:15;;;;;;;9.00;8.15;;;;;;;;;;5108171;27;20122;-63
2022/08/05 03:11:42;;;;;;;9.05;8.35;;;;;;;;;;5103994;27;20031;-65
2022/08/05 03:14:07;;;;;;;10.70;8.23;;;;;;;;;;5103464;27;20051;-64
2022/08/05 03:16:32;;;;;;;9.02;8.23;;;;;;;;;;5106709;27;20504;-64
2022/08/05 03:18:58;;;;;;;11.88;8.50;;;;;;;;;;5088605;27;20494;-64
2022/08/05 03:21:24;;;;;;;9.20;7.80;;;;;;;;;;5107581;27;20569;-64
2022/08/05 03:23:49;;;;;;;9.18;8.48;;;;;;;;;;5105701;27;20024;-64
2022/08/05 03:26:15;;;;;;;9.23;8.38;;;;;;;;;;5103340;27;20043;-64
2022/08/05 03:28:40;;;;;;;9.77;8.88;;;;;;;;;;5103583;27;20115;-63
2022/08/05 03:31:06;;;;;;;9.98;9.20;;;;;;;;;;5105176;27;20488;-66
2022/08/05 03:33:31;;;;;;;9.18;8.48;;;;;;;;;;5101308;27;20056;-65
2022/08/05 03:35:57;;;;;;;8.30;7.60;;;;;;;;;;5103260;27;20062;-65
2022/08/05 03:38:23;;;;;;;9.52;8.35;;;;;;;;;;5105957;27;20020;-65
2022/08/05 03:40:48;;;;;;;10.60;7.93;;;;;;;;;;5105497;27;20055;-64
2022/08/05 03:43:15;;;;;;;9.75;8.85;;;;;;;;;;5104123;27;20024;-64
2022/08/05 03:45:40;;;;;;;8.18;7.57;;;;;;;;;;5103178;27;20422;-64
2022/08/05 03:48:05;;;;;;;9.68;8.98;;;;;;;;;;5102055;27;20034;-64
2022/08/05 03:50:50;;;;;;;8.85;8.25;;;;;;;;;;5100468;27;20031;-64
2022/08/05 03:53:28;;;;;;;9.15;8.55;;;;;;;;;;5102660;27;20034;-64
2022/08/05 03:55:58;;;;;;;9.45;8.55;;;;;;;;;;5100441;27;20030;-64
2022/08/05 03:58:26;;;;;;;8.48;7.85;;;;;;;;;;5104099;27;20032;-64
2022/08/05 04:00:53;;;;;;;8.80;8.20;;;;;;;;;;5103798;27;20059;-66
2022/08/05 04:03:20;;;;;;;9.07;8.38;;;;;;;;;;5102385;27;20028;-64
2022/08/05 04:05:45;;;;;;;9.27;8.57;;;;;;;;;;5104890;27;20051;-66
2022/08/05 04:08:11;;;;;;;8.90;8.13;;;;;;;;;;5102921;27;20102;-64
2022/08/05 04:10:38;;;;;;;10.05;9.25;;;;;;;;;;5102961;27;20030;-64
2022/08/05 04:13:04;;;;;;;9.05;8.35;;;;;;;;;;5101732;27;20488;-66
2022/08/05 04:15:29;;;;;;;9.10;8.40;;;;;;;;;;5104265;27;20027;-65
2022/08/05 04:17:55;;;;;;;8.95;8.25;;;;;;;;;;5093417;27;20035;-63
2022/08/05 04:20:22;;;;;;;9.18;8.43;;;;;;;;;;5105533;27;20040;-66
2022/08/05 04:22:47;;;;;;;8.60;7.88;;;;;;;;;;5102684;27;20405;-64
2022/08/05 04:25:13;;;;;;;9.35;8.55;;;;;;;;;;5103425;27;20026;-64
2022/08/05 04:27:38;;;;;;;8.25;7.75;;;;;;;;;;5101659;27;20416;-66
2022/08/05 04:30:04;;;;;;;8.85;8.15;;;;;;;;;;5102804;27;20543;-66
2022/08/05 04:32:29;;;;;;;8.82;8.18;;;;;;;;;;5085839;27;20103;-65
2022/08/05 04:34:55;;;;;;;9.02;8.43;;;;;;;;;;5101316;27;20031;-66
2022/08/05 04:37:20;;;;;;;8.55;7.85;;;;;;;;;;5101776;27;20027;-64
2022/08/05 04:39:45;;;;;;;8.20;7.60;;;;;;;;;;5100481;27;20056;-65
2022/08/05 04:42:10;;;;;;;9.00;8.30;;;;;;;;;;5103105;27;20024;-65
2022/08/05 04:44:36;;;;;;;9.70;8.80;;;;;;;;;;5105312;27;20097;-65
2022/08/05 04:47:01;;;;;;;9.63;8.73;;;;;;;;;;5104992;27;20039;-64
2022/08/05 04:49:26;;;;;;;8.73;8.07;;;;;;;;;;5101353;27;20040;-64
2022/08/05 04:51:51;;;;;;;8.77;8.18;;;;;;;;;;5101493;27;20023;-64
2022/08/05 04:54:18;;;;;;;8.30;7.63;;;;;;;;;;5100900;27;20034;-65
2022/08/05 04:56:44;;;;;;;9.52;8.77;;;;;;;;;;5100035;27;20020;-64
2022/08/05 04:59:09;;;;;;;10.00;8.25;;;;;;;;;;5102206;27;20023;-65
2022/08/05 05:01:34;;;;;;;10.23;8.02;;;;;;;;;;5104653;27;20342;-64
2022/08/05 05:03:59;;;;;;;8.48;7.70;;;;;;;;;;5106311;27;20450;-64
2022/08/05 05:06:26;;;;;;;9.10;8.20;;;;;;;;;;5101964;27;20038;-64
2022/08/05 05:08:51;;;;;;;8.00;7.25;;;;;;;;;;5106539;27;20023;-63
2022/08/05 05:11:16;;;;;;;8.13;7.43;;;;;;;;;;5104003;27;20440;-65
2022/08/05 05:13:41;;;;;;;7.22;6.65;;;;;;;;;;5103059;27;20512;-64
2022/08/05 05:16:07;;;;;;;7.95;7.35;;;;;;;;;;5100316;28;20036;-65
2022/08/05 05:18:32;;;;;;;8.00;7.40;;;;;;;;;;5103016;27;20576;-64
2022/08/05 05:20:57;;;;;;;8.70;7.90;;;;;;;;;;5100308;27;20074;-65
2022/08/05 05:23:22;;;;;;;7.18;6.63;;;;;;;;;;5102256;28;20219;-64
2022/08/05 05:25:48;;;;;;;7.93;7.32;;;;;;;;;;5103228;27;20027;-64
2022/08/05 05:28:13;;;;;;;8.10;7.50;;;;;;;;;;5104882;27;20132;-65
2022/08/05 05:30:38;;;;;;;14.35;8.43;;;;;;;;;;5101787;27;20047;-64
2022/08/05 05:33:06;;;;;;;9.48;8.68;;;;;;;;;;5101441;28;20062;-64
2022/08/05 05:35:31;;;;;;;11.05;8.13;;;;;;;;;;5099954;27;20020;-65
2022/08/05 05:37:59;;;;;;;8.05;7.25;;;;;;;;;;5100862;28;20031;-65
2022/08/05 05:40:25;;;;;;;9.48;7.80;;;;;;;;;;5101555;28;20522;-65
2022/08/05 05:42:50;;;;;;;9.60;8.68;;;;;;;;;;5104168;28;20019;-65
2022/08/05 05:45:16;;;;;;;8.10;7.40;;;;;;;;;;5100913;28;20032;-65
2022/08/05 05:47:41;;;;;;;6.50;5.93;;;;;;;;;;5101563;28;20060;-65
2022/08/05 05:50:08;;;;;;;8.80;7.15;;;;;;;;;;5101076;28;20543;-65
2022/08/05 05:52:34;;;;;;;7.25;6.57;;;;;;;;;;5102025;28;20115;-66
2022/08/05 05:55:00;;;;;;;6.38;5.78;;;;;;;;;;5101183;28;20019;-64
2022/08/05 05:57:26;;;;;;;7.30;5.88;;;;;;;;;;5101137;28;20507;-65
2022/08/05 05:59:51;;;;;;;6.10;5.60;;;;;;;;;;5100765;28;20031;-65
2022/08/05 06:02:16;;;;;;;5.72;5.22;;;;;;;;;;5104274;28;20103;-65
2022/08/05 06:04:41;;;;;;;7.30;5.90;;;;;;;;;;5101654;28;20032;-65
2022/08/05 06:07:07;;;;;;;6.15;5.47;;;;;;;;;;5101030;28;20066;-67
2022/08/05 06:09:32;;;;;;;6.15;5.65;;;;;;;;;;5101204;28;20447;-68
2022/08/05 06:11:57;;;;;;;6.13;5.45;;;;;;;;;;5104701;28;20023;-67
2022/08/05 06:14:22;;;;;;;6.13;5.72;;;;;;;;;;5101231;28;20552;-66
2022/08/05 06:16:48;;;;;;;6.72;6.13;;;;;;;;;;5102748;28;20557;-66
2022/08/05 06:19:13;;;;;;;7.03;6.00;;;;;;;;;;5098343;28;20036;-65
2022/08/05 06:21:38;;;;;;;6.82;6.10;;;;;;;;;;5095038;28;20040;-68
2022/08/05 06:24:07;;;;;;;5.78;5.38;;;;;;;;;;5101509;28;20478;-65
2022/08/05 06:26:32;;;;;;;6.05;5.55;;;;;;;;;;5103945;28;20026;-66
2022/08/05 06:28:58;;;;;;;5.93;5.53;;;;;;;;;;5106867;27;20034;-65
2022/08/05 06:31:23;;;;;;;9.77;7.10;;;;;;;;;;5104597;27;20942;-64
2022/08/05 06:33:48;;;;;;;6.13;5.53;;;;;;;;;;5105027;27;20098;-64
2022/08/05 06:36:14;;;;;;;6.55;6.00;;;;;;;;;;5102382;27;20024;-68
2022/08/05 06:38:39;;;;;;;5.65;5.15;;;;;;;;;;5104970;27;20023;-67
2022/08/05 06:41:04;;;;;;;6.53;5.25;;;;;;;;;;5103378;27;20110;-70
2022/08/05 06:43:30;;;;;;;13.13;6.55;;;;;;;;;;5105259;27;20146;-70
2022/08/05 06:45:55;;;;;;;6.43;5.93;;;;;;;;;;5103619;27;20036;-69
2022/08/05 06:48:20;;;;;;;6.97;6.18;;;;;;;;;;5105612;27;20023;-68
2022/08/05 06:50:45;;;;;;;13.70;6.68;;;;;;;;;;5102834;27;20776;-63
2022/08/05 06:53:12;;;;;;;13.10;6.43;;;;;;;;;;5105548;27;20374;-65
2022/08/05 06:55:37;;;;;;;6.10;5.50;;;;;;;;;;5103398;27;20020;-66
2022/08/05 06:58:03;;;;;;;8.20;6.22;;;;;;;;;;5104577;27;20046;-66
2022/08/05 07:00:30;;;;;;;9.90;6.00;;;;;;;;;;5105278;27;20032;-66
2022/08/05 07:02:55;;;;;;;9.70;6.32;;;;;;;;;;5103109;27;20023;-67
2022/08/05 07:05:20;;;;;;;9.45;5.93;;;;;;;;;;5104623;27;20084;-66
2022/08/05 07:07:47;;;;;;;9.70;5.38;;;;;;;;;;5105084;27;20145;-65
2022/08/05 07:10:13;;;;;;;9.13;6.95;;;;;;;;;;5105248;27;20501;-66
2022/08/05 07:18:06;;;;;;;8.20;5.37;;;;;;;;;;5104470;27;20042;-66
2022/08/05 07:20:31;;;;;;;6.05;5.65;;;;;;;;;;5103520;27;20039;-67
2022/08/05 07:22:56;;;;;;;11.90;10.70;;;;;;;;;;5105181;27;20491;-64
2022/08/05 07:25:22;;;;;;;11.68;10.32;;;;;;;;;;5102849;27;20024;-67
2022/08/05 07:27:48;;;;;;;14.02;9.48;;;;;;;;;;5103720;27;20011;-66
2022/08/05 07:30:13;;;;;;;7.40;6.85;;;;;;;;;;5103128;27;20411;-65
2022/08/05 07:32:38;;;;;;;6.00;5.63;;;;;;;;;;5104487;27;20419;-66
2022/08/05 07:35:07;;;;;;;6.32;5.88;;;;;;;;;;5103886;27;20186;-65
2022/08/05 07:37:33;;;;;;;6.20;5.65;;;;;;;;;;5104612;27;20056;-66
2022/08/05 07:39:58;;;;;;;5.88;5.05;;;;;;;;;;5104606;27;20142;-66
2022/08/05 07:42:23;;;;;;;5.72;5.43;;;;;;;;;;5102476;27;20035;-66
2022/08/05 07:44:48;;;;;;;5.45;4.90;;;;;;;;;;5106202;27;20027;-66
2022/08/05 07:47:14;;;;;;;6.40;5.88;;;;;;;;;;5104869;27;20451;-66
2022/08/05 07:49:39;;;;;;;6.38;5.88;;;;;;;;;;5106238;27;20389;-67
2022/08/05 07:52:04;;;;;;;6.85;6.35;;;;;;;;;;5102583;27;20384;-67
2022/08/05 07:54:30;;;;;;;7.28;6.68;;;;;;;;;;5103368;27;20130;-66
2022/08/05 07:56:55;;;;;;;6.25;5.88;;;;;;;;;;5103967;27;20085;-66
2022/08/05 07:59:20;;;;;;;6.38;5.88;;;;;;;;;;5105979;27;20487;-66
2022/08/05 08:01:45;;;;;;;7.30;6.68;;;;;;;;;;5103309;27;20040;-66
2022/08/05 08:04:10;;;;;;;6.57;6.03;;;;;;;;;;5105020;27;20036;-66
2022/08/05 08:06:36;;;;;;;9.93;6.00;;;;;;;;;;5101688;27;20039;-67
2022/08/05 08:09:01;;;;;;;6.22;5.60;;;;;;;;;;5105099;27;20042;-66
2022/08/05 08:11:27;;;;;;;6.40;6.00;;;;;;;;;;5105438;27;20351;-66
2022/08/05 08:13:53;;;;;;;5.68;5.18;;;;;;;;;;5104169;27;20628;-67
2022/08/05 08:16:18;;;;;;;6.82;6.18;;;;;;;;;;5101754;27;20027;-67
2022/08/05 08:18:44;;;;;;;6.07;5.68;;;;;;;;;;5103108;27;20073;-66
2022/08/05 08:21:10;;;;;;;7.07;6.32;;;;;;;;;;5106451;27;20065;-66
2022/08/05 08:23:35;;;;;;;5.95;5.35;;;;;;;;;;5106329;27;20044;-66
2022/08/05 08:26:00;;;;;;;6.30;5.82;;;;;;;;;;5104678;27;20370;-66
2022/08/05 08:28:25;;;;;;;6.32;5.72;;;;;;;;;;5103728;27;20042;-66
2022/08/05 08:30:51;;;;;;;6.78;6.18;;;;;;;;;;5105274;27;20030;-67
2022/08/05 08:33:16;;;;;;;7.10;6.60;;;;;;;;;;5105482;27;20031;-67
2022/08/05 08:35:41;;;;;;;6.45;5.68;;;;;;;;;;5103854;27;20476;-67
2022/08/05 08:38:07;;;;;;;6.60;6.00;;;;;;;;;;5102812;27;20027;-67
2022/08/05 08:40:33;;;;;;;6.97;6.38;;;;;;;;;;5104045;27;20142;-67
2022/08/05 08:42:59;;;;;;;7.47;6.20;;;;;;;;;;5104680;27;20027;-66
2022/08/05 08:45:24;;;;;;;9.43;5.72;;;;;;;;;;5103446;27;20035;-67
2022/08/05 08:47:51;;;;;;;6.70;6.25;;;;;;;;;;5103708;27;20023;-67
2022/08/05 08:50:17;;;;;;;7.25;6.75;;;;;;;;;;5076913;28;20056;-65
2022/08/05 08:52:45;;;;;;;6.47;5.97;;;;;;;;;;5082694;28;20024;-65
2022/08/05 08:55:11;;;;;;;7.25;6.35;;;;;;;;;;5078776;28;20463;-65
2022/08/05 08:57:37;;;;;;;7.10;6.32;;;;;;;;;;5082869;28;20077;-65
2022/08/05 09:00:04;;;;;;;6.55;6.15;;;;;;;;;;5081752;28;20023;-66
2022/08/05 09:02:30;;;;;;;6.50;6.10;;;;;;;;;;5081845;28;20406;-67
2022/08/05 09:04:55;;;;;;;8.07;7.32;;;;;;;;;;5081930;28;20374;-66
2022/08/05 09:07:20;;;;;;;6.38;5.85;;;;;;;;;;5081593;28;20043;-66
2022/08/05 09:09:45;;;;;;;6.07;5.68;;;;;;;;;;5081356;28;20046;-66
2022/08/05 09:12:11;;;;;;;6.78;6.20;;;;;;;;;;5081129;28;20020;-67
2022/08/05 09:14:36;;;;;;;6.30;5.88;;;;;;;;;;5080880;28;20024;-66
2022/08/05 09:17:08;;;;;;;7.00;5.93;;;;;;;;;;5080554;28;20035;-65
2022/08/05 09:19:34;;;;;;;6.80;6.40;;;;;;;;;;5081437;28;20028;-66
2022/08/05 09:21:59;;;;;;;6.25;5.68;;;;;;;;;;5080022;28;20400;-66
2022/08/05 09:24:25;;;;;;;7.15;6.50;;;;;;;;;;5079912;28;20378;-66
2022/08/05 09:26:51;;;;;;;7.45;6.90;;;;;;;;;;5081456;28;20258;-66
2022/08/05 09:29:16;;;;;;;6.28;5.68;;;;;;;;;;5080895;28;20036;-66
2022/08/05 09:31:44;;;;;;;7.20;6.60;;;;;;;;;;5081381;28;20032;-66
2022/08/05 09:34:10;;;;;;;7.53;6.18;;;;;;;;;;5077819;28;20039;-65
2022/08/05 09:36:38;;;;;;;6.72;6.13;;;;;;;;;;5083037;28;20032;-66
2022/08/05 09:39:04;;;;;;;7.03;6.40;;;;;;;;;;5082148;28;20028;-66
2022/08/05 09:41:30;;;;;;;9.95;6.10;;;;;;;;;;5078692;28;20089;-65
2022/08/05 09:43:55;;;;;;;6.95;6.25;;;;;;;;;;5080757;28;20024;-65
2022/08/05 09:46:24;;;;;;;6.07;5.63;;;;;;;;;;5081582;28;20120;-66
2022/08/05 09:48:51;;;;;;;6.88;6.35;;;;;;;;;;5079551;28;20016;-64
2022/08/05 09:51:16;;;;;;;6.53;6.13;;;;;;;;;;5081805;28;20044;-65
2022/08/05 09:53:51;;;;;;;6.57;6.05;;;;;;;;;;5079674;28;20032;-64
2022/08/05 09:56:23;;;;;;;6.25;5.85;;;;;;;;;;5075225;28;20060;-64
2022/08/05 09:59:03;;;;;;;7.25;6.75;;;;;;;;;;5080695;28;20131;-65
2022/08/05 10:01:28;;;;;;;7.70;6.90;;;;;;;;;;5084788;28;20020;-64
2022/08/05 10:03:55;;;;;;;5.93;5.45;;;;;;;;;;5083679;28;20832;-64
2022/08/05 10:06:20;;;;;;;6.15;5.65;;;;;;;;;;5084935;28;20028;-64
2022/08/05 10:08:46;;;;;;;6.00;5.60;;;;;;;;;;5086732;28;20039;-64
2022/08/05 10:11:13;;;;;;;6.28;5.75;;;;;;;;;;5085958;28;20048;-63
2022/08/05 10:13:39;;;;;;;6.63;6.10;;;;;;;;;;5084905;28;20043;-64
2022/08/05 10:16:05;;;;;;;6.57;6.15;;;;;;;;;;5084989;28;20488;-64
2022/08/05 10:18:31;;;;;;;7.00;6.30;;;;;;;;;;5085089;28;20031;-64
2022/08/05 10:21:01;;;;;;;6.82;6.35;;;;;;;;;;5083634;28;20509;-66
2022/08/05 10:23:29;;;;;;;5.65;5.35;;;;;;;;;;5084431;28;20106;-66
2022/08/05 10:25:54;;;;;;;6.43;5.90;;;;;;;;;;5084584;28;20032;-65
2022/08/05 10:28:20;;;;;;;6.65;6.25;;;;;;;;;;5084583;28;20028;-66
2022/08/05 10:30:45;;;;;;;6.60;6.13;;;;;;;;;;5091253;28;20032;-66
2022/08/05 10:33:11;;;;;;;5.72;5.38;;;;;;;;;;5084721;28;20028;-65
2022/08/05 10:35:36;;;;;;;6.93;6.32;;;;;;;;;;5085177;28;20032;-65
2022/08/05 10:38:02;;;;;;;5.85;5.32;;;;;;;;;;5083433;28;20039;-66
2022/08/05 10:40:50;;;;;;;6.45;5.95;;;;;;;;;;5083839;28;20056;-66
2022/08/05 10:43:34;;;;;;;6.38;5.95;;;;;;;;;;5083927;28;20038;-66
2022/08/05 10:46:01;;;;;;;6.53;6.05;;;;;;;;;;5084808;28;20024;-66
2022/08/05 10:48:30;;;;;;;6.43;5.97;;;;;;;;;;5081210;28;20054;-66
2022/08/05 10:50:56;;;;;;;6.47;5.90;;;;;;;;;;5082414;28;20054;-62
2022/08/05 10:53:38;;;;;;;6.35;5.82;;;;;;;;;;5082985;28;20027;-65
2022/08/05 10:56:06;;;;;;;8.32;5.63;;;;;;;;;;5083260;28;20392;-66
2022/08/05 10:58:31;;;;;;;9.60;6.50;;;;;;;;;;5085184;28;20463;-67
2022/08/05 11:00:56;;;;;;;5.90;5.50;;;;;;;;;;5084721;28;20113;-66
2022/08/05 11:03:21;;;;;;;5.47;5.07;;;;;;;;;;5086411;28;20036;-67
2022/08/05 11:06:06;;;;;;;6.75;6.25;;;;;;;;;;5084753;28;20051;-66
2022/08/05 11:08:32;;;;;;;6.18;5.70;;;;;;;;;;5083391;28;20024;-66
2022/08/05 11:11:17;;;;;;;5.80;5.50;;;;;;;;;;5083396;28;20028;-66
2022/08/05 11:13:42;;;;;;;14.00;6.32;;;;;;;;;;5084920;28;20111;-66
2022/08/05 11:16:20;;;;;;;7.25;6.10;;;;;;;;;;5086086;28;20024;-67
2022/08/05 11:18:46;;;;;;;6.32;5.88;;;;;;;;;;5083396;28;20564;-67
2022/08/05 11:21:29;;;;;;;8.63;5.72;;;;;;;;;;5084988;28;20046;-66
2022/08/05 11:23:55;;;;;;;7.13;6.72;;;;;;;;;;5084169;28;20024;-67
2022/08/05 11:26:21;;;;;;;6.60;6.18;;;;;;;;;;5084714;28;20038;-67
2022/08/05 11:28:47;;;;;;;7.63;6.78;;;;;;;;;;5082640;28;20036;-67
2022/08/05 11:31:13;;;;;;;7.15;6.43;;;;;;;;;;5082950;28;20047;-66
2022/08/05 11:33:39;;;;;;;6.32;5.93;;;;;;;;;;5085269;28;20627;-67
2022/08/05 11:36:05;;;;;;;7.53;6.82;;;;;;;;;;5086722;28;20040;-69
2022/08/05 11:38:40;;;;;;;7.13;6.72;;;;;;;;;;5084206;28;20411;-67
2022/08/05 11:41:05;;;;;;;;;;;;;;;;;;5082169;28;20055;-67
2022/08/05 11:43:31;;;;;;;6.63;6.10;;;;;;;;;;5085035;28;19908;-67
2022/08/05 11:45:57;;;;;;;7.15;6.75;;;;;;;;;;5085946;28;20265;-66
2022/08/05 11:48:24;;;;;;;7.80;7.30;;;;;;;;;;5082410;28;20377;-65
2022/08/05 11:50:49;;;;;;;6.22;5.82;;;;;;;;;;5080700;28;20031;-66
2022/08/05 11:53:15;;;;;;;7.10;6.47;;;;;;;;;;5085920;28;20072;-66
2022/08/05 11:55:57;;;;;;;6.55;6.05;;;;;;;;;;5084622;28;20556;-66
2022/08/05 11:58:25;;;;;;;6.55;6.25;;;;;;;;;;5084766;28;20472;-67
2022/08/05 12:00:59;;;;;;;6.40;5.30;;;;;;;;;;5080200;28;20032;-67
2022/08/05 12:03:24;;;;;;;;;;;;;;;;;;5066783;28;20056;-65
2022/08/05 12:05:49;;;;;;;6.85;6.35;;;;;;;;;;5084007;28;19915;-66
2022/08/05 12:08:15;;;;;;;11.00;6.22;;;;;;;;;;5085450;28;20028;-67
2022/08/05 12:10:40;;;;;;;6.85;5.60;;;;;;;;;;5082981;28;20027;-67
2022/08/05 12:13:06;;;;;;;7.30;6.82;;;;;;;;;;5082341;28;20592;-67
2022/08/05 12:15:31;;;;;;;6.97;6.43;;;;;;;;;;5081544;28;20429;-67
2022/08/05 12:17:57;;;;;;;7.63;6.15;;;;;;;;;;5084817;28;20553;-66
2022/08/05 12:20:26;;;;;;;6.65;6.25;;;;;;;;;;5083270;28;20051;-66
2022/08/05 12:22:51;;;;;;;6.35;5.40;;;;;;;;;;5084520;28;20020;-66
2022/08/05 12:25:16;;;;;;;7.63;7.05;;;;;;;;;;5084290;28;20063;-65
2022/08/05 12:27:46;;;;;;;7.30;6.65;;;;;;;;;;5083948;28;20032;-66
2022/08/05 12:30:11;;;;;;;5.80;5.40;;;;;;;;;;5080897;28;21014;-67
2022/08/05 12:32:44;;;;;;;6.43;6.03;;;;;;;;;;5083949;28;20127;-66
2022/08/05 12:35:10;;;;;;;6.28;5.78;;;;;;;;;;5084698;28;20016;-67
2022/08/05 12:37:35;;;;;;;5.95;5.57;;;;;;;;;;5083939;28;20028;-67
2022/08/05 12:40:01;;;;;;;6.70;6.20;;;;;;;;;;5083251;28;20517;-66
2022/08/05 12:42:28;;;;;;;6.70;6.20;;;;;;;;;;5083170;28;20340;-66
2022/08/05 12:45:00;;;;;;;6.15;5.65;;;;;;;;;;5081499;28;20024;-65
2022/08/05 12:47:28;;;;;;;6.13;5.82;;;;;;;;;;5081687;28;20024;-66
2022/08/05 12:49:54;;;;;;;6.43;5.93;;;;;;;;;;5080821;28;20036;-67
2022/08/05 12:52:19;;;;;;;7.32;6.72;;;;;;;;;;5080197;28;20489;-66
2022/08/05 12:54:46;;;;;;;6.20;5.75;;;;;;;;;;5082186;28;20115;-66
2022/08/05 12:57:12;;;;;;;8.02;6.60;;;;;;;;;;5081201;28;20027;-66
2022/08/05 12:59:53;;;;;;;7.38;6.65;;;;;;;;;;5072625;28;20409;-66
2022/08/05 13:02:23;;;;;;;6.63;6.05;;;;;;;;;;5080641;28;20422;-66
2022/08/05 13:04:49;;;;;;;5.68;5.38;;;;;;;;;;5081922;28;20118;-65
2022/08/05 13:07:17;;;;;;;6.75;6.25;;;;;;;;;;5080565;28;20430;-65
2022/08/05 13:09:46;;;;;;;6.40;5.93;;;;;;;;;;5081317;28;20056;-65
2022/08/05 13:12:13;;;;;;;6.53;6.13;;;;;;;;;;5083066;28;20023;-66
2022/08/05 13:14:39;;;;;;;8.82;6.10;;;;;;;;;;5084582;28;20553;-65
2022/08/05 13:17:21;;;;;;;6.80;6.28;;;;;;;;;;5082516;28;20107;-66
2022/08/05 13:19:58;;;;;;;5.85;5.30;;;;;;;;;;5083544;28;20525;-66
2022/08/05 13:22:24;;;;;;;6.63;6.03;;;;;;;;;;5080865;28;20486;-65
2022/08/05 13:24:49;;;;;;;5.78;5.47;;;;;;;;;;5083704;28;20115;-65
2022/08/05 13:27:27;;;;;;;7.82;7.13;;;;;;;;;;5083063;28;20498;-66
2022/08/05 13:29:53;;;;;;;6.68;6.28;;;;;;;;;;5081933;28;20051;-64
2022/08/05 13:32:19;;;;;;;6.65;6.20;;;;;;;;;;5081749;28;20446;-66
2022/08/05 13:34:45;;;;;;;6.78;5.95;;;;;;;;;;5081229;28;20070;-65
2022/08/05 13:37:10;;;;;;;6.15;5.68;;;;;;;;;;5082551;28;20103;-66
2022/08/05 13:39:36;;;;;;;6.88;6.30;;;;;;;;;;5079819;28;20064;-65
2022/08/05 13:42:01;;;;;;;6.00;5.63;;;;;;;;;;5081542;28;20044;-64
2022/08/05 13:44:26;;;;;;;5.82;5.43;;;;;;;;;;5083342;28;20114;-66
2022/08/05 13:46:51;;;;;;;5.73;5.43;;;;;;;;;;5080900;28;20031;-66
2022/08/05 13:49:16;;;;;;;5.38;5.05;;;;;;;;;;5079935;28;20851;-65
2022/08/05 13:51:42;;;;;;;5.43;5.03;;;;;;;;;;5080123;28;20067;-64
2022/08/05 13:54:10;;;;;;;6.18;5.63;;;;;;;;;;5081741;28;20640;-65
2022/08/05 13:56:35;;;;;;;5.03;4.63;;;;;;;;;;5079704;28;20074;-65
2022/08/05 13:59:00;;;;;;;5.75;4.63;;;;;;;;;;5081739;28;20651;-66
2022/08/05 14:01:26;;;;;;;4.40;4.20;;;;;;;;;;5080016;28;20585;-65
2022/08/05 14:06:35;;;;;;;5.60;5.20;;;;;;;;;;5082250;28;20292;-65
2022/08/05 14:09:01;;;;;;;5.40;5.00;;;;;;;;;;5081352;28;20421;-64
2022/08/05 14:11:27;;;;;;;5.07;4.78;;;;;;;;;;5084040;28;20333;-65
2022/08/05 14:13:52;;;;;;;5.25;4.95;;;;;;;;;;5082105;28;20039;-64
2022/08/05 14:16:17;;;;;;;5.80;5.30;;;;;;;;;;5081449;28;20028;-65
2022/08/05 14:18:43;;;;;;;4.90;4.70;;;;;;;;;;5077305;28;20140;-64
2022/08/05 14:21:08;;;;;;;5.97;5.57;;;;;;;;;;5081006;28;20387;-65
2022/08/05 14:23:33;;;;;;;5.20;4.88;;;;;;;;;;5079263;28;20142;-64
2022/08/05 14:25:58;;;;;;;6.15;4.57;;;;;;;;;;5080422;28;20028;-64
2022/08/05 14:28:24;;;;;;;5.05;4.75;;;;;;;;;;5079556;28;20020;-65
2022/08/05 14:30:49;;;;;;;4.83;4.53;;;;;;;;;;5081556;28;20396;-61
2022/08/05 14:33:14;;;;;;;5.80;5.27;;;;;;;;;;5082240;28;20724;-65
2022/08/05 14:35:39;;;;;;;5.40;5.10;;;;;;;;;;5055778;28;20744;-65
2022/08/05 14:38:05;;;;;;;5.72;5.22;;;;;;;;;;5079098;28;20038;-65
2022/08/05 14:40:30;;;;;;;5.00;4.75;;;;;;;;;;5078704;28;20241;-65
2022/08/05 14:42:55;;;;;;;5.30;5.00;;;;;;;;;;5079049;28;20036;-64
2022/08/05 14:45:20;;;;;;;4.50;4.30;;;;;;;;;;5081317;28;20257;-66
2022/08/05 14:47:46;;;;;;;5.18;4.88;;;;;;;;;;5083733;28;20568;-65